الصفحة الرئيسية
METAR-TAF:

METAR-TAF

مطار :

فلاغستاف, أريزونا, الولايات المتحدة

دائرة عرض: 35-08-25N, خط طول: 111-40-20W, ارتفاع: 2137 متر

مراقبة الطقس الحالي

تاريخ ووقت الإصدار 2ساعات و 25 دقيقة قبل الساعة 07:57UTC
رياح هادئة
درجة الحرارة 4°درجة مئوية
الرطوبة 32%
ضغط 1030 hPa

METAR: KFLG 290757Z AUTO 00000KT 04/M11 A3042 RMK AO2 SLPNO T00441106 TSNO $

زمن: 03:22 (10:22 UTC)

توقعات

تاريخ ووقت الإصدار 5ساعات و 2 دقيقة قبل الساعة 05:20UTC
التوقعات صالحة من29 الساعة 06 UTC إلى 30 الساعة 06 UTC
ريح 8 عقدة من الشرق/الشمال الشرقي
الرؤية: 10 كم
سماء صافية
من 29 الساعة 0630 UTC
ريح 3 عقدةمن اتجاهات متغيرة
الرؤية: 10 كم
سماء صافية
من 29 الساعة 1700 UTC
ريح 8 عقدة من الشرق تتزايد حتى 14 عقدة
الرؤية: 10 كم
سماء صافية

TAF: KFLG 290520Z 2906/3006 07008KT P6SM SKC FM290630 VRB03KT P6SM SKC FM291700 08008G14KT P6SM SKC

أرصاد الطقس والتوقعات من أكثر من 4000 مطار (تقارير الطقس للمطار METAR والتنبؤ بالطقس بالمطارTAF).

المحطات المتاحة هي النقط الصفراء والحمراء على الخريطة.

حرك المؤشر فوق النقطة لمعرفة اسم المحطة.

ثم انقر لمعرفة أرصاد وتوقعات الطقس.

لتغيير الخارطة: اضغط على الأزرار الخضراء مع رمز الصليب الأسود للتكبير. على الزر الأخضر مع شرطة للتصغير، أو على الأسهم الخضراء للخرائط المجاورة.


METAR-TAF: